Time;durP1;ratioP1;P1;durP2;ratioP2;P2;SDS_P1;SDS_P2;PMS_P1;PMS_P2;Temp;Humidity;BMP_temperature;BMP_pressure;BME280_temperature;BME280_humidity;BME280_pressure;Samples;Min_cycle;Max_cycle;Signal;HPM_P1;HPM_P2
2022/08/14 00:00:53;;;;;;;14.45;7.88;;;;;;;;;;4964434;28;20122;-87
2022/08/14 00:03:20;;;;;;;12.45;7.88;;;;;;;;;;4964108;28;20479;-87
2022/08/14 00:05:46;;;;;;;9.98;7.30;;;;;;;;;;4956884;28;20048;-87
2022/08/14 00:08:12;;;;;;;10.93;7.55;;;;;;;;;;4969328;28;20111;-87
2022/08/14 00:10:38;;;;;;;14.13;7.63;;;;;;;;;;4977577;28;20117;-87
2022/08/14 00:13:04;;;;;;;12.20;7.25;;;;;;;;;;4967482;28;20022;-89
2022/08/14 00:15:33;;;;;;;10.13;7.30;;;;;;;;;;4965804;28;20031;-90
2022/08/14 00:17:59;;;;;;;15.25;8.00;;;;;;;;;;4967602;28;20445;-89
2022/08/14 00:20:27;;;;;;;10.68;7.45;;;;;;;;;;4955593;28;20122;-89
2022/08/14 00:22:53;;;;;;;19.10;7.63;;;;;;;;;;4967546;28;20031;-87
2022/08/14 00:25:19;;;;;;;10.23;7.75;;;;;;;;;;4972071;28;20034;-88
2022/08/14 00:27:45;;;;;;;14.85;8.07;;;;;;;;;;4970748;28;20109;-88
2022/08/14 00:30:13;;;;;;;12.15;7.82;;;;;;;;;;5034319;28;20039;-89
2022/08/14 00:32:39;;;;;;;16.27;8.93;;;;;;;;;;4968553;28;20083;-88
2022/08/14 00:35:06;;;;;;;10.98;7.80;;;;;;;;;;4973744;28;20133;-88
2022/08/14 00:37:32;;;;;;;10.30;7.80;;;;;;;;;;4968921;28;20734;-88
2022/08/14 00:39:59;;;;;;;9.70;7.70;;;;;;;;;;4967444;28;20041;-88
2022/08/14 00:42:25;;;;;;;15.25;8.38;;;;;;;;;;4956516;28;20034;-89
2022/08/14 00:44:51;;;;;;;13.80;8.38;;;;;;;;;;4968606;28;20034;-88
2022/08/14 00:47:18;;;;;;;15.93;8.40;;;;;;;;;;4970571;28;20109;-87
2022/08/14 00:49:44;;;;;;;18.58;8.45;;;;;;;;;;4973695;28;20076;-88
2022/08/14 00:52:15;;;;;;;13.45;9.32;;;;;;;;;;4941911;28;20053;-88
2022/08/14 00:54:41;;;;;;;12.05;8.93;;;;;;;;;;4971334;28;20061;-88
2022/08/14 00:57:07;;;;;;;11.57;9.05;;;;;;;;;;4964334;28;20043;-88
2022/08/14 00:59:34;;;;;;;11.68;9.05;;;;;;;;;;4972618;28;20019;-88
2022/08/14 01:02:01;;;;;;;14.40;9.32;;;;;;;;;;4971839;28;20423;-88
2022/08/14 01:04:28;;;;;;;10.27;9.00;;;;;;;;;;4955906;28;20044;-88
2022/08/14 01:06:54;;;;;;;13.10;9.73;;;;;;;;;;4972275;28;20065;-88
2022/08/14 01:09:23;;;;;;;15.18;9.80;;;;;;;;;;4971595;28;20031;-89
2022/08/14 01:11:49;;;;;;;14.52;9.43;;;;;;;;;;4956200;28;20035;-88
2022/08/14 01:14:19;;;;;;;13.63;10.02;;;;;;;;;;4967457;28;20069;-87
2022/08/14 01:16:46;;;;;;;13.27;9.98;;;;;;;;;;5037764;28;20031;-88
2022/08/14 01:21:57;;;;;;;12.85;10.10;;;;;;;;;;4972867;28;20116;-88
2022/08/14 01:24:23;;;;;;;15.43;9.73;;;;;;;;;;4967494;28;20055;-88
2022/08/14 01:26:50;;;;;;;13.90;10.20;;;;;;;;;;4966674;28;20539;-89
2022/08/14 01:29:18;;;;;;;14.07;10.13;;;;;;;;;;4961693;28;20174;-88
2022/08/14 01:31:53;;;;;;;17.98;10.63;;;;;;;;;;4962652;28;20031;-88
2022/08/14 01:34:22;;;;;;;15.57;10.45;;;;;;;;;;4951838;28;20442;-87
2022/08/14 01:36:49;;;;;;;16.27;10.80;;;;;;;;;;4967934;28;20109;-88
2022/08/14 01:39:16;;;;;;;14.07;8.95;;;;;;;;;;5034802;28;20035;-88
2022/08/14 01:41:59;;;;;;;15.75;10.70;;;;;;;;;;4964474;28;20557;-88
2022/08/14 01:44:28;;;;;;;18.10;10.90;;;;;;;;;;4967494;28;20065;-88
2022/08/14 01:46:56;;;;;;;15.45;10.40;;;;;;;;;;4961939;28;20031;-88
2022/08/14 01:49:22;;;;;;;17.52;11.40;;;;;;;;;;4966151;28;20172;-87
2022/08/14 01:51:53;;;;;;;13.60;11.02;;;;;;;;;;4970483;28;20053;-88
2022/08/14 01:54:20;;;;;;;21.38;13.10;;;;;;;;;;4968785;28;20031;-87
2022/08/14 01:56:48;;;;;;;15.68;10.98;;;;;;;;;;4965972;28;20033;-87
2022/08/14 01:59:20;;;;;;;18.13;11.30;;;;;;;;;;4949392;28;20100;-86
2022/08/14 02:01:48;;;;;;;16.08;11.02;;;;;;;;;;4973850;28;20023;-87
2022/08/14 02:04:14;;;;;;;16.38;12.02;;;;;;;;;;4966222;28;20038;-86
2022/08/14 02:06:40;;;;;;;18.13;11.45;;;;;;;;;;4967954;28;20043;-87
2022/08/14 02:09:08;;;;;;;19.88;11.60;;;;;;;;;;4967217;28;20384;-87
2022/08/14 02:11:34;;;;;;;15.73;10.90;;;;;;;;;;4965591;28;20092;-87
2022/08/14 02:14:05;;;;;;;13.50;11.38;;;;;;;;;;4968714;28;20034;-88
2022/08/14 02:16:35;;;;;;;;;;;;;;;;;;4964342;28;20066;-88
2022/08/14 02:19:03;;;;;;;16.67;11.40;;;;;;;;;;4977950;28;19979;-88
2022/08/14 02:21:31;;;;;;;13.27;11.43;;;;;;;;;;4966457;28;20401;-88
2022/08/14 02:23:58;;;;;;;18.75;11.85;;;;;;;;;;4965377;28;20484;-88
2022/08/14 02:26:26;;;;;;;12.60;11.27;;;;;;;;;;4964006;28;20027;-88
2022/08/14 02:28:54;;;;;;;13.35;11.68;;;;;;;;;;4964589;28;20364;-87
2022/08/14 02:31:20;;;;;;;15.70;12.73;;;;;;;;;;4962844;28;20035;-87
2022/08/14 02:33:47;;;;;;;19.73;12.52;;;;;;;;;;4964562;28;20031;-88
2022/08/14 02:36:14;;;;;;;16.02;11.45;;;;;;;;;;4966679;28;20053;-88
2022/08/14 02:38:41;;;;;;;16.02;12.25;;;;;;;;;;4964660;28;20490;-89
2022/08/14 02:41:12;;;;;;;15.80;11.73;;;;;;;;;;4966559;28;20129;-88
2022/08/14 02:43:38;;;;;;;15.50;12.98;;;;;;;;;;4965350;28;20221;-88
2022/08/14 02:46:08;;;;;;;21.05;12.35;;;;;;;;;;4965062;28;20073;-88
2022/08/14 02:48:35;;;;;;;20.43;12.63;;;;;;;;;;4963369;28;20091;-88
2022/08/14 02:51:02;;;;;;;14.88;12.75;;;;;;;;;;4941031;28;20035;-88
2022/08/14 02:53:29;;;;;;;16.80;13.60;;;;;;;;;;4945600;28;20036;-86
2022/08/14 02:55:55;;;;;;;15.60;12.30;;;;;;;;;;4956452;28;20462;-87
2022/08/14 02:58:22;;;;;;;16.42;13.43;;;;;;;;;;4963422;28;20073;-87
2022/08/14 03:00:48;;;;;;;17.08;14.02;;;;;;;;;;4967684;28;20034;-88
2022/08/14 03:03:16;;;;;;;18.80;13.80;;;;;;;;;;4963927;28;20046;-87
2022/08/14 03:05:42;;;;;;;19.50;13.90;;;;;;;;;;4963686;28;20031;-88
2022/08/14 03:08:13;;;;;;;16.95;13.57;;;;;;;;;;4964303;28;20038;-88
2022/08/14 03:10:39;;;;;;;16.35;13.43;;;;;;;;;;4961837;28;20136;-88
2022/08/14 03:13:05;;;;;;;17.20;14.70;;;;;;;;;;4948804;28;20046;-89
2022/08/14 03:15:45;;;;;;;20.63;14.13;;;;;;;;;;5030974;28;20114;-89
2022/08/14 03:18:12;;;;;;;15.32;13.63;;;;;;;;;;4962570;28;20066;-89
2022/08/14 03:20:38;;;;;;;17.98;13.90;;;;;;;;;;4962528;28;20134;-89
2022/08/14 03:23:04;;;;;;;16.23;14.10;;;;;;;;;;4951123;28;20031;-88
2022/08/14 03:25:32;;;;;;;18.77;14.55;;;;;;;;;;4967426;28;20387;-89
2022/08/14 03:28:02;;;;;;;18.23;14.63;;;;;;;;;;4944881;28;20093;-88
2022/08/14 03:30:30;;;;;;;18.98;14.82;;;;;;;;;;4965553;28;20046;-91
2022/08/14 03:32:56;;;;;;;17.48;14.55;;;;;;;;;;4960502;28;20060;-88
2022/08/14 03:35:23;;;;;;;24.50;14.90;;;;;;;;;;5028384;28;20125;-89
2022/08/14 03:37:51;;;;;;;20.75;15.30;;;;;;;;;;4934345;28;20039;-88
2022/08/14 03:40:17;;;;;;;22.45;14.35;;;;;;;;;;4961243;28;20111;-88
2022/08/14 03:42:43;;;;;;;19.17;14.70;;;;;;;;;;4946187;28;20453;-89
2022/08/14 03:45:09;;;;;;;17.15;14.00;;;;;;;;;;4959538;28;20046;-88
2022/08/14 03:47:39;;;;;;;20.77;14.40;;;;;;;;;;4946894;28;20027;-89
2022/08/14 03:50:08;;;;;;;18.27;15.15;;;;;;;;;;4966422;28;20030;-88
2022/08/14 03:52:34;;;;;;;22.55;14.40;;;;;;;;;;4961857;28;20161;-88
2022/08/14 03:55:02;;;;;;;21.33;15.10;;;;;;;;;;4952932;28;20114;-89
2022/08/14 03:57:31;;;;;;;20.95;15.20;;;;;;;;;;4970323;28;20123;-89
2022/08/14 03:59:57;;;;;;;20.83;14.98;;;;;;;;;;4960591;28;20029;-89
2022/08/14 04:02:23;;;;;;;19.23;16.38;;;;;;;;;;4965032;28;20412;-88
2022/08/14 04:04:50;;;;;;;17.10;15.02;;;;;;;;;;4963406;28;20659;-89
2022/08/14 04:07:16;;;;;;;17.67;15.00;;;;;;;;;;4963643;28;20034;-88
2022/08/14 04:09:42;;;;;;;17.05;14.90;;;;;;;;;;4948483;28;20626;-89
2022/08/14 04:12:08;;;;;;;23.27;14.70;;;;;;;;;;4948897;28;20046;-89
2022/08/14 04:14:34;;;;;;;24.70;16.58;;;;;;;;;;4976735;28;20031;-88
2022/08/14 04:17:00;;;;;;;18.95;15.95;;;;;;;;;;4961843;28;20041;-89
2022/08/14 04:19:27;;;;;;;22.35;15.90;;;;;;;;;;4968048;28;20038;-88
2022/08/14 04:21:53;;;;;;;20.55;15.82;;;;;;;;;;4952294;28;20407;-89
2022/08/14 04:24:18;;;;;;;20.25;16.13;;;;;;;;;;4958602;28;20102;-87
2022/08/14 04:26:46;;;;;;;19.38;16.10;;;;;;;;;;4939865;28;20031;-87
2022/08/14 04:29:12;;;;;;;29.55;17.17;;;;;;;;;;5031348;28;20038;-88
2022/08/14 04:31:38;;;;;;;22.60;16.23;;;;;;;;;;4965955;28;20137;-87
2022/08/14 04:34:05;;;;;;;22.27;15.52;;;;;;;;;;4963064;28;20387;-87
2022/08/14 04:36:31;;;;;;;20.48;15.63;;;;;;;;;;4964689;28;20096;-88
2022/08/14 04:44:27;;;;;;;20.75;17.23;;;;;;;;;;4943563;28;20118;-87
2022/08/14 04:49:37;;;;;;;27.15;16.83;;;;;;;;;;4962783;28;20754;-88
2022/08/14 04:52:04;;;;;;;22.77;16.33;;;;;;;;;;4965415;28;20400;-88
2022/08/14 04:54:30;;;;;;;22.70;16.10;;;;;;;;;;4966778;28;20031;-89
2022/08/14 04:56:56;;;;;;;22.40;16.30;;;;;;;;;;4958832;28;20031;-88
2022/08/14 04:59:23;;;;;;;17.63;14.88;;;;;;;;;;4962982;28;20031;-87
2022/08/14 05:01:49;;;;;;;18.02;15.02;;;;;;;;;;5035281;28;20062;-89
2022/08/14 05:04:17;;;;;;;21.05;14.77;;;;;;;;;;4967923;28;20031;-88
2022/08/14 05:06:43;;;;;;;18.60;14.07;;;;;;;;;;4950172;28;20035;-89
2022/08/14 05:09:09;;;;;;;15.77;14.18;;;;;;;;;;4969259;28;20042;-88
2022/08/14 05:11:35;;;;;;;23.70;12.93;;;;;;;;;;4966696;28;20102;-88
2022/08/14 05:14:02;;;;;;;17.05;13.60;;;;;;;;;;4963596;28;20122;-88
2022/08/14 05:16:30;;;;;;;16.20;13.23;;;;;;;;;;4964141;28;20502;-89
2022/08/14 05:18:56;;;;;;;16.15;13.35;;;;;;;;;;4963920;28;20030;-89
2022/08/14 05:21:23;;;;;;;16.40;12.52;;;;;;;;;;4970410;28;20034;-88
2022/08/14 05:23:50;;;;;;;14.90;12.77;;;;;;;;;;4948757;28;20110;-88
2022/08/14 05:26:20;;;;;;;15.18;12.82;;;;;;;;;;4962599;28;20109;-88
2022/08/14 05:28:47;;;;;;;;;;;;;;;;;;4966398;28;20138;-89
2022/08/14 05:31:16;;;;;;;15.00;12.55;;;;;;;;;;4964822;28;20018;-89
2022/08/14 05:33:42;;;;;;;14.98;12.43;;;;;;;;;;4968659;28;20026;-88
2022/08/14 05:36:10;;;;;;;17.83;12.25;;;;;;;;;;4952338;28;20047;-89
2022/08/14 05:38:41;;;;;;;15.88;12.35;;;;;;;;;;4963098;28;20037;-89
2022/08/14 05:41:08;;;;;;;15.35;12.50;;;;;;;;;;4966492;28;20070;-89
2022/08/14 05:43:34;;;;;;;14.35;12.77;;;;;;;;;;4963432;28;20650;-89
2022/08/14 05:46:01;;;;;;;15.52;12.57;;;;;;;;;;4963636;28;20061;-88
2022/08/14 05:48:27;;;;;;;18.35;11.93;;;;;;;;;;5029484;28;20070;-88
2022/08/14 05:50:53;;;;;;;14.25;11.88;;;;;;;;;;4967238;28;20037;-89
2022/08/14 05:53:20;;;;;;;14.13;12.13;;;;;;;;;;4967210;28;20121;-89
2022/08/14 05:55:47;;;;;;;13.45;11.98;;;;;;;;;;4957581;28;20416;-89
2022/08/14 05:58:13;;;;;;;12.88;11.68;;;;;;;;;;4956644;28;20137;-89
2022/08/14 06:00:40;;;;;;;13.60;12.13;;;;;;;;;;4964816;28;20031;-89
2022/08/14 06:03:17;;;;;;;14.63;12.18;;;;;;;;;;4955074;28;20134;-90
2022/08/14 06:05:44;;;;;;;14.15;11.77;;;;;;;;;;5030259;28;20117;-90
2022/08/14 06:08:16;;;;;;;15.00;11.35;;;;;;;;;;4968327;28;20026;-89
2022/08/14 06:10:42;;;;;;;17.50;11.95;;;;;;;;;;4967402;28;20034;-88
2022/08/14 06:13:08;;;;;;;20.77;11.88;;;;;;;;;;4963463;28;20122;-88
2022/08/14 06:15:34;;;;;;;18.70;11.73;;;;;;;;;;4965841;28;20609;-89
2022/08/14 06:18:00;;;;;;;13.75;11.50;;;;;;;;;;4963235;28;20062;-87
2022/08/14 06:20:26;;;;;;;15.82;11.40;;;;;;;;;;4966031;28;20043;-88
2022/08/14 06:22:52;;;;;;;12.18;10.88;;;;;;;;;;4963646;28;20023;-87
2022/08/14 06:25:18;;;;;;;12.60;10.98;;;;;;;;;;4966328;28;20019;-88
2022/08/14 06:27:46;;;;;;;20.27;11.65;;;;;;;;;;4961379;28;20113;-87
2022/08/14 06:30:13;;;;;;;16.23;11.52;;;;;;;;;;4964517;28;20027;-87
2022/08/14 06:32:39;;;;;;;12.18;10.75;;;;;;;;;;4953990;28;20034;-87
2022/08/14 06:35:06;;;;;;;15.13;10.73;;;;;;;;;;4976002;28;20035;-88
2022/08/14 06:37:45;;;;;;;12.00;10.60;;;;;;;;;;4965790;28;20034;-88
2022/08/14 06:40:15;;;;;;;11.55;10.35;;;;;;;;;;4963804;28;20109;-89
2022/08/14 06:42:41;;;;;;;13.40;10.27;;;;;;;;;;4961477;28;20031;-87
2022/08/14 06:45:08;;;;;;;14.63;9.98;;;;;;;;;;4963687;28;20125;-88
2022/08/14 06:47:41;;;;;;;13.77;10.38;;;;;;;;;;4964247;28;20066;-87
2022/08/14 06:50:09;;;;;;;19.33;10.27;;;;;;;;;;4949530;28;20054;-87
2022/08/14 06:52:36;;;;;;;13.70;9.85;;;;;;;;;;4965422;28;20086;-88
2022/08/14 06:55:02;;;;;;;14.40;10.23;;;;;;;;;;4965656;28;20503;-88
2022/08/14 06:57:34;;;;;;;11.38;9.82;;;;;;;;;;4963800;28;20059;-89
2022/08/14 07:00:00;;;;;;;15.80;10.30;;;;;;;;;;4958970;28;20035;-89
2022/08/14 07:07:56;;;;;;;12.57;9.57;;;;;;;;;;5030056;28;20052;-89
2022/08/14 07:10:22;;;;;;;14.02;9.98;;;;;;;;;;5043351;28;20131;-88
2022/08/14 07:12:48;;;;;;;15.30;9.80;;;;;;;;;;5047092;28;20025;-87
2022/08/14 07:15:14;;;;;;;12.18;9.38;;;;;;;;;;5044455;28;20117;-86
2022/08/14 07:17:47;;;;;;;12.88;9.27;;;;;;;;;;5034395;28;20063;-87
2022/08/14 07:20:13;;;;;;;12.73;9.38;;;;;;;;;;5046043;28;20032;-87
2022/08/14 07:22:39;;;;;;;16.45;9.77;;;;;;;;;;5048467;28;20045;-86
2022/08/14 07:25:06;;;;;;;10.30;9.00;;;;;;;;;;5050201;28;20508;-86
2022/08/14 07:27:32;;;;;;;13.38;9.20;;;;;;;;;;5043221;28;20027;-87
2022/08/14 07:29:58;;;;;;;9.30;8.30;;;;;;;;;;5030546;28;20021;-87
2022/08/14 07:32:24;;;;;;;10.75;8.60;;;;;;;;;;5046956;28;20041;-90
2022/08/14 07:34:50;;;;;;;16.08;9.20;;;;;;;;;;5046733;28;20437;-88
2022/08/14 07:37:16;;;;;;;12.65;8.52;;;;;;;;;;5033023;28;20037;-87
2022/08/14 07:39:42;;;;;;;10.75;8.90;;;;;;;;;;5050903;28;20037;-88
2022/08/14 07:42:08;;;;;;;10.23;8.20;;;;;;;;;;5024994;28;20039;-88
2022/08/14 07:44:34;;;;;;;11.30;8.02;;;;;;;;;;5070250;28;20094;-88
2022/08/14 07:47:00;;;;;;;12.10;8.68;;;;;;;;;;5034179;28;20037;-89
2022/08/14 07:49:26;;;;;;;9.10;8.20;;;;;;;;;;5049115;28;20047;-88
2022/08/14 07:51:52;;;;;;;15.75;8.07;;;;;;;;;;5044389;28;20108;-89
2022/08/14 07:54:19;;;;;;;14.48;9.50;;;;;;;;;;5037553;28;20040;-88
2022/08/14 07:56:45;;;;;;;13.27;8.40;;;;;;;;;;5046487;28;20675;-90
2022/08/14 07:59:11;;;;;;;11.30;8.80;;;;;;;;;;5048688;28;20121;-89
2022/08/14 08:01:38;;;;;;;10.55;7.82;;;;;;;;;;5030912;28;20056;-88
2022/08/14 08:04:04;;;;;;;10.60;8.23;;;;;;;;;;5049878;28;20025;-89
2022/08/14 08:06:30;;;;;;;14.25;8.43;;;;;;;;;;5012701;28;20043;-91
2022/08/14 08:08:59;;;;;;;10.85;8.77;;;;;;;;;;4968687;28;20377;-90
2022/08/14 08:11:26;;;;;;;13.02;8.63;;;;;;;;;;4959812;28;20058;-89
2022/08/14 08:13:54;;;;;;;13.07;8.25;;;;;;;;;;4966177;28;20030;-89
2022/08/14 08:16:22;;;;;;;14.02;8.55;;;;;;;;;;4960291;28;20050;-89
2022/08/14 08:18:49;;;;;;;11.55;8.15;;;;;;;;;;4951246;28;20141;-89
2022/08/14 08:21:15;;;;;;;15.18;8.10;;;;;;;;;;4967817;28;20043;-90
2022/08/14 08:23:41;;;;;;;10.65;8.00;;;;;;;;;;4967560;28;20034;-89
2022/08/14 08:26:07;;;;;;;11.40;7.90;;;;;;;;;;4966553;28;20039;-88
2022/08/14 08:28:36;;;;;;;11.45;7.88;;;;;;;;;;4967732;28;20035;-89
2022/08/14 08:31:04;;;;;;;9.90;7.53;;;;;;;;;;5032985;28;20034;-89
2022/08/14 08:33:31;;;;;;;10.82;7.47;;;;;;;;;;4956781;28;20105;-88
2022/08/14 08:35:58;;;;;;;13.30;7.70;;;;;;;;;;4969373;28;20035;-87
2022/08/14 08:38:25;;;;;;;11.57;7.32;;;;;;;;;;4971618;28;20027;-92
2022/08/14 08:40:51;;;;;;;8.43;7.45;;;;;;;;;;4968627;28;20472;-88
2022/08/14 08:43:20;;;;;;;13.52;7.15;;;;;;;;;;4969254;28;20427;-89
2022/08/14 08:45:54;;;;;;;12.40;8.02;;;;;;;;;;4968353;28;20392;-86
2022/08/14 08:48:20;;;;;;;13.45;7.43;;;;;;;;;;4964161;28;20412;-88
2022/08/14 08:50:46;;;;;;;10.73;7.40;;;;;;;;;;4957636;28;20054;-77
2022/08/14 08:53:13;;;;;;;12.75;7.30;;;;;;;;;;4969866;28;20043;-75
2022/08/14 08:55:41;;;;;;;10.70;7.15;;;;;;;;;;4972330;28;20039;-75
2022/08/14 08:58:11;;;;;;;9.63;7.40;;;;;;;;;;4970440;28;20127;-75
2022/08/14 09:00:39;;;;;;;12.13;6.95;;;;;;;;;;4968463;28;20141;-75
2022/08/14 09:03:05;;;;;;;9.70;6.65;;;;;;;;;;4953448;28;20038;-74
2022/08/14 09:05:33;;;;;;;10.35;6.43;;;;;;;;;;4968424;28;20106;-76
2022/08/14 09:08:09;;;;;;;9.90;7.15;;;;;;;;;;4968279;28;20035;-75
2022/08/14 09:10:36;;;;;;;9.50;7.00;;;;;;;;;;4949740;28;20628;-76
2022/08/14 09:13:02;;;;;;;14.98;7.07;;;;;;;;;;4949987;28;20038;-76
2022/08/14 09:15:28;;;;;;;13.65;6.70;;;;;;;;;;4968218;28;20458;-90
2022/08/14 09:17:54;;;;;;;13.10;7.20;;;;;;;;;;4951689;28;20057;-88
2022/08/14 09:20:20;;;;;;;11.15;7.28;;;;;;;;;;4970103;28;20088;-75
2022/08/14 09:22:47;;;;;;;13.10;7.10;;;;;;;;;;4970727;28;20120;-75
2022/08/14 09:25:13;;;;;;;12.13;6.70;;;;;;;;;;4969125;28;20391;-75
2022/08/14 09:27:39;;;;;;;14.05;7.00;;;;;;;;;;4967894;28;20027;-75
2022/08/14 09:30:06;;;;;;;16.45;6.35;;;;;;;;;;4970248;28;20110;-76
2022/08/14 09:32:39;;;;;;;14.07;6.47;;;;;;;;;;4966658;28;20034;-77
2022/08/14 09:35:08;;;;;;;10.43;6.43;;;;;;;;;;4969123;28;20057;-76
2022/08/14 09:37:34;;;;;;;14.10;6.10;;;;;;;;;;4968528;28;20061;-76
2022/08/14 09:40:16;;;;;;;13.65;6.00;;;;;;;;;;4951769;28;20070;-75
2022/08/14 09:42:45;;;;;;;9.48;6.20;;;;;;;;;;4970179;28;20072;-77
2022/08/14 09:45:19;;;;;;;10.93;6.28;;;;;;;;;;4960262;28;20036;-76
2022/08/14 09:47:49;;;;;;;13.65;5.53;;;;;;;;;;4969864;28;20391;-76
2022/08/14 09:50:35;;;;;;;12.93;6.03;;;;;;;;;;4952983;28;20031;-76
2022/08/14 09:53:02;;;;;;;19.85;5.45;;;;;;;;;;4954770;28;20141;-76
2022/08/14 09:55:32;;;;;;;11.65;5.25;;;;;;;;;;4963206;28;20031;-76
2022/08/14 09:58:10;;;;;;;13.23;5.70;;;;;;;;;;4947627;28;20065;-76
2022/08/14 10:00:59;;;;;;;13.07;5.70;;;;;;;;;;4951734;28;20030;-89
2022/08/14 10:03:31;;;;;;;9.27;4.97;;;;;;;;;;4962988;28;20026;-88
2022/08/14 10:06:08;;;;;;;9.88;5.03;;;;;;;;;;4970882;28;20321;-89
2022/08/14 10:09:03;;;;;;;12.27;4.80;;;;;;;;;;5045961;28;20429;-90
2022/08/14 10:11:34;;;;;;;15.88;5.30;;;;;;;;;;5057173;28;20422;-88
2022/08/14 10:14:11;;;;;;;8.25;5.25;;;;;;;;;;5050648;28;20183;-89
2022/08/14 10:16:41;;;;;;;6.82;4.80;;;;;;;;;;5051542;28;20400;-89
2022/08/14 10:19:08;;;;;;;6.20;5.18;;;;;;;;;;5052653;28;20147;-90
2022/08/14 10:21:35;;;;;;;13.07;4.95;;;;;;;;;;5050018;28;20037;-89
2022/08/14 10:24:02;;;;;;;6.10;4.30;;;;;;;;;;5051370;28;20032;-91
2022/08/14 10:26:28;;;;;;;9.25;4.60;;;;;;;;;;5049928;28;20104;-91
2022/08/14 10:28:55;;;;;;;9.90;4.82;;;;;;;;;;5064689;28;20037;-90
2022/08/14 10:31:28;;;;;;;11.05;3.58;;;;;;;;;;5051267;28;20067;-89
2022/08/14 10:34:03;;;;;;;12.27;3.25;;;;;;;;;;5048444;28;20083;-90
2022/08/14 10:36:34;;;;;;;9.95;3.78;;;;;;;;;;5051355;28;20063;-90
2022/08/14 10:39:02;;;;;;;7.32;4.18;;;;;;;;;;5049028;28;20032;-89
2022/08/14 10:41:38;;;;;;;8.75;5.10;;;;;;;;;;5059371;28;20040;-89
2022/08/14 10:44:08;;;;;;;10.60;5.05;;;;;;;;;;5049563;28;20453;-89
2022/08/14 10:46:42;;;;;;;9.35;4.60;;;;;;;;;;5049990;28;20051;-89
2022/08/14 10:49:16;;;;;;;11.13;4.10;;;;;;;;;;5049196;28;20378;-88
2022/08/14 10:51:42;;;;;;;9.77;4.53;;;;;;;;;;5064802;28;20094;-89
2022/08/14 10:54:09;;;;;;;10.77;5.43;;;;;;;;;;5050139;28;20408;-90
2022/08/14 10:56:35;;;;;;;10.32;4.90;;;;;;;;;;5049109;28;20036;-89
2022/08/14 10:59:07;;;;;;;12.68;4.82;;;;;;;;;;5050279;28;20052;-91
2022/08/14 11:01:34;;;;;;;14.25;4.68;;;;;;;;;;5046788;28;20074;-92
2022/08/14 11:04:00;;;;;;;9.05;4.50;;;;;;;;;;5049621;28;20020;-89
2022/08/14 11:06:27;;;;;;;12.40;4.78;;;;;;;;;;5048822;28;20167;-88
2022/08/14 11:08:53;;;;;;;7.63;4.57;;;;;;;;;;5050484;28;20120;-89
2022/08/14 11:11:21;;;;;;;7.35;4.38;;;;;;;;;;5050490;28;20033;-88
2022/08/14 11:13:49;;;;;;;9.15;4.07;;;;;;;;;;5051283;28;20398;-88
2022/08/14 11:16:15;;;;;;;6.22;4.43;;;;;;;;;;5050338;28;20036;-88
2022/08/14 11:18:45;;;;;;;9.88;4.45;;;;;;;;;;5045646;28;20470;-89
2022/08/14 11:21:11;;;;;;;;;;;;;;;;;;5039738;28;20041;-90
2022/08/14 11:23:38;;;;;;;6.00;4.38;;;;;;;;;;5049578;28;19985;-88
2022/08/14 11:26:08;;;;;;;5.47;4.05;;;;;;;;;;5049451;28;20071;-88
2022/08/14 11:28:37;;;;;;;6.90;3.95;;;;;;;;;;5049792;28;20025;-88
2022/08/14 11:31:04;;;;;;;6.82;4.20;;;;;;;;;;5048276;28;20017;-88
2022/08/14 11:33:33;;;;;;;12.13;3.90;;;;;;;;;;5049074;28;20067;-88
2022/08/14 11:36:00;;;;;;;4.73;3.67;;;;;;;;;;5049854;28;20029;-88
2022/08/14 11:38:27;;;;;;;7.97;4.55;;;;;;;;;;5049291;28;20279;-87
2022/08/14 11:40:55;;;;;;;8.93;5.07;;;;;;;;;;5047209;28;20110;-88
2022/08/14 11:43:24;;;;;;;7.80;4.70;;;;;;;;;;5048548;28;20045;-87
2022/08/14 11:45:50;;;;;;;8.30;4.73;;;;;;;;;;5049535;28;20036;-88
2022/08/14 11:48:17;;;;;;;6.82;4.60;;;;;;;;;;5050553;28;20021;-88
2022/08/14 11:50:44;;;;;;;6.93;4.30;;;;;;;;;;5048767;28;20047;-88
2022/08/14 11:53:19;;;;;;;5.35;4.20;;;;;;;;;;5049220;28;20343;-88
2022/08/14 11:55:46;;;;;;;7.43;4.60;;;;;;;;;;5049496;28;20025;-89
2022/08/14 11:58:12;;;;;;;6.53;4.65;;;;;;;;;;5048040;28;20064;-88
2022/08/14 12:00:47;;;;;;;7.25;4.55;;;;;;;;;;5048359;28;20063;-88
2022/08/14 12:03:13;;;;;;;6.32;4.70;;;;;;;;;;5049030;28;20029;-87
2022/08/14 12:05:40;;;;;;;5.57;4.78;;;;;;;;;;5056011;28;20033;-88
2022/08/14 12:08:07;;;;;;;10.00;4.80;;;;;;;;;;4969225;28;20026;-87
2022/08/14 12:10:37;;;;;;;5.22;4.72;;;;;;;;;;4968437;28;20031;-88
2022/08/14 12:13:16;;;;;;;7.25;4.30;;;;;;;;;;4952022;28;20451;-88
2022/08/14 12:15:43;;;;;;;9.10;4.20;;;;;;;;;;5035408;28;20027;-87
2022/08/14 12:18:10;;;;;;;6.40;3.67;;;;;;;;;;4969295;28;20429;-88
2022/08/14 12:20:38;;;;;;;4.43;3.20;;;;;;;;;;4967761;28;20046;-88
2022/08/14 12:23:05;;;;;;;5.80;3.70;;;;;;;;;;4968901;28;20019;-88
2022/08/14 12:25:31;;;;;;;6.20;3.42;;;;;;;;;;4966369;28;20030;-88
2022/08/14 12:27:59;;;;;;;6.53;3.00;;;;;;;;;;4965986;28;20031;-88
2022/08/14 12:30:29;;;;;;;6.18;3.30;;;;;;;;;;4967205;28;20512;-87
2022/08/14 12:32:55;;;;;;;6.43;3.80;;;;;;;;;;4949243;28;20032;-88
2022/08/14 12:35:22;;;;;;;5.57;3.40;;;;;;;;;;5017757;28;20058;-88
2022/08/14 12:37:51;;;;;;;6.85;3.60;;;;;;;;;;4966900;28;20023;-87
2022/08/14 12:40:21;;;;;;;6.15;3.60;;;;;;;;;;4964238;28;20015;-87
2022/08/14 12:42:47;;;;;;;;;;;;;;;;;;4967580;28;20391;-90
2022/08/14 12:45:13;;;;;;;4.78;3.15;;;;;;;;;;4949847;28;19956;-88
2022/08/14 12:47:42;;;;;;;6.40;3.50;;;;;;;;;;4952694;28;20062;-89
2022/08/14 12:50:10;;;;;;;5.93;3.33;;;;;;;;;;4967627;28;20140;-90
2022/08/14 12:52:39;;;;;;;4.60;3.50;;;;;;;;;;4952961;28;20041;-88
2022/08/14 12:55:10;;;;;;;7.15;5.00;;;;;;;;;;4967373;28;20074;-87
2022/08/14 12:57:38;;;;;;;8.88;4.22;;;;;;;;;;4964335;28;20027;-88
2022/08/14 13:00:18;;;;;;;5.57;3.90;;;;;;;;;;4967298;28;20106;-87
2022/08/14 13:02:49;;;;;;;9.70;4.35;;;;;;;;;;4958875;28;20369;-88
2022/08/14 13:05:16;;;;;;;5.55;3.75;;;;;;;;;;4961537;28;20027;-87
2022/08/14 13:07:42;;;;;;;7.03;3.90;;;;;;;;;;4947437;28;20066;-86
2022/08/14 13:10:09;;;;;;;4.60;3.63;;;;;;;;;;4967483;28;20035;-87
2022/08/14 13:12:39;;;;;;;6.53;4.10;;;;;;;;;;4951444;28;20492;-87
2022/08/14 13:15:07;;;;;;;5.65;4.00;;;;;;;;;;4970944;28;20065;-86
2022/08/14 13:17:36;;;;;;;6.18;4.10;;;;;;;;;;4952646;28;20061;-87
2022/08/14 13:20:02;;;;;;;4.43;3.80;;;;;;;;;;4966876;28;20399;-87
2022/08/14 13:22:29;;;;;;;7.32;3.90;;;;;;;;;;4967501;28;20511;-87
2022/08/14 13:24:55;;;;;;;4.55;4.03;;;;;;;;;;4970186;28;20031;-87
2022/08/14 13:27:24;;;;;;;7.45;3.80;;;;;;;;;;4951787;28;20114;-88
2022/08/14 13:29:51;;;;;;;6.88;4.28;;;;;;;;;;4970150;28;20081;-87
2022/08/14 13:32:18;;;;;;;5.90;3.50;;;;;;;;;;4967997;28;20037;-87
2022/08/14 13:34:46;;;;;;;4.90;3.95;;;;;;;;;;4970784;28;20076;-87
2022/08/14 13:37:14;;;;;;;6.43;3.88;;;;;;;;;;4952328;28;20043;-87
2022/08/14 13:39:45;;;;;;;4.60;3.80;;;;;;;;;;4952952;28;20081;-87
2022/08/14 13:42:13;;;;;;;7.10;4.30;;;;;;;;;;4967966;28;20027;-87
2022/08/14 13:44:39;;;;;;;6.03;4.03;;;;;;;;;;4968175;28;20035;-88
2022/08/14 13:47:06;;;;;;;8.05;3.85;;;;;;;;;;4969218;28;20027;-88
2022/08/14 13:49:32;;;;;;;5.90;3.85;;;;;;;;;;4969480;28;20015;-88
2022/08/14 13:52:00;;;;;;;9.63;4.55;;;;;;;;;;4952862;28;20155;-88
2022/08/14 13:54:29;;;;;;;8.73;4.20;;;;;;;;;;4968625;28;20080;-87
2022/08/14 13:56:58;;;;;;;7.27;4.00;;;;;;;;;;4967483;28;20073;-87
2022/08/14 13:59:27;;;;;;;5.10;4.03;;;;;;;;;;4964849;28;20286;-87
2022/08/14 14:01:55;;;;;;;6.03;3.88;;;;;;;;;;4951128;28;20076;-87
2022/08/14 14:04:23;;;;;;;6.13;3.88;;;;;;;;;;4951235;28;20080;-88
2022/08/14 14:06:50;;;;;;;5.00;4.18;;;;;;;;;;4961147;28;20126;-87
2022/08/14 14:09:28;;;;;;;6.68;4.13;;;;;;;;;;4934128;28;20035;-88
2022/08/14 14:11:55;;;;;;;4.82;4.25;;;;;;;;;;4949579;28;20047;-88
2022/08/14 14:14:21;;;;;;;8.82;3.85;;;;;;;;;;4951576;28;20442;-87
2022/08/14 14:16:48;;;;;;;7.32;4.10;;;;;;;;;;4950216;28;20040;-89
2022/08/14 14:19:18;;;;;;;4.75;3.40;;;;;;;;;;4951124;28;20039;-88
2022/08/14 14:21:44;;;;;;;6.20;4.00;;;;;;;;;;4951448;28;20100;-77
2022/08/14 14:24:10;;;;;;;10.25;4.07;;;;;;;;;;4949533;28;20378;-77
2022/08/14 14:26:37;;;;;;;8.32;4.38;;;;;;;;;;4946906;28;20031;-88
2022/08/14 14:29:05;;;;;;;5.18;4.30;;;;;;;;;;4968769;28;20442;-87
2022/08/14 14:31:31;;;;;;;5.35;3.95;;;;;;;;;;4941290;28;20041;-87
2022/08/14 14:33:58;;;;;;;6.45;4.10;;;;;;;;;;4949682;28;20110;-87
2022/08/14 14:36:25;;;;;;;5.57;3.83;;;;;;;;;;4950604;28;20034;-87
2022/08/14 14:38:55;;;;;;;5.03;3.63;;;;;;;;;;4932820;28;20126;-86
2022/08/14 14:41:27;;;;;;;8.00;3.70;;;;;;;;;;4934855;28;20038;-86
2022/08/14 14:43:53;;;;;;;8.80;4.18;;;;;;;;;;4932311;28;20023;-76
2022/08/14 14:46:20;;;;;;;7.07;4.97;;;;;;;;;;4930782;28;20059;-76
2022/08/14 14:48:46;;;;;;;7.88;4.15;;;;;;;;;;4931637;29;20032;-76
2022/08/14 14:51:13;;;;;;;6.78;3.85;;;;;;;;;;4937456;28;20069;-76